Time;durP1;ratioP1;P1;durP2;ratioP2;P2;SDS_P1;SDS_P2;PMS_P1;PMS_P2;Temp;Humidity;BMP_temperature;BMP_pressure;BME280_temperature;BME280_humidity;BME280_pressure;Samples;Min_cycle;Max_cycle;Signal;HPM_P1;HPM_P2
2023/01/06 00:02:01;;;;;;;;;1.00;0.00;;;;;14.03;100.00;101896.03;5037075;28;60552;-74
2023/01/06 00:04:27;;;;;;;;;0.00;0.00;;;;;14.04;100.00;101904.88;5038761;28;45565;-72
2023/01/06 00:06:52;;;;;;;;;0.00;0.00;;;;;14.04;100.00;101912.84;5038010;28;49667;-73
2023/01/06 00:09:18;;;;;;;;;0.00;0.00;;;;;14.00;100.00;101917.22;5038436;28;58602;-72
2023/01/06 00:11:43;;;;;;;;;0.00;0.00;;;;;13.98;100.00;101912.75;5021020;28;45393;-73
2023/01/06 00:14:08;;;;;;;;;0.33;0.00;;;;;13.97;100.00;101914.53;5019605;28;54176;-72
2023/01/06 00:16:34;;;;;;;;;1.00;0.00;;;;;13.98;100.00;101918.97;5038048;28;52873;-73
2023/01/06 00:19:00;;;;;;;;;0.00;0.00;;;;;13.97;100.00;101919.84;5021219;28;45538;-72
2023/01/06 00:21:26;;;;;;;;;0.00;0.00;;;;;14.00;100.00;101926.94;5038328;28;45468;-73
2023/01/06 00:23:52;;;;;;;;;1.00;0.00;;;;;13.97;100.00;101930.47;5039028;28;45299;-73
2023/01/06 00:26:17;;;;;;;;;0.00;0.00;;;;;13.98;100.00;101929.59;5018245;28;45427;-72
2023/01/06 00:28:42;;;;;;;;;0.00;0.00;;;;;13.98;100.00;101923.38;5038836;28;46540;-73
2023/01/06 00:31:10;;;;;;;;;0.00;0.00;;;;;13.95;100.00;101921.56;5029860;28;45458;-73
2023/01/06 00:33:36;;;;;;;;;0.00;0.00;;;;;13.97;100.00;101922.50;5037386;28;45336;-72
2023/01/06 00:36:02;;;;;;;;;0.00;0.00;;;;;13.97;100.00;101922.50;5037514;28;45557;-72
2023/01/06 00:38:28;;;;;;;;;0.67;0.00;;;;;13.96;100.00;101926.03;5038253;28;45974;-73
2023/01/06 00:40:53;;;;;;;;;0.00;0.00;;;;;13.94;100.00;101927.75;5038063;28;45350;-74
2023/01/06 00:43:18;;;;;;;;;0.33;0.00;;;;;13.94;100.00;101922.44;5037912;28;54226;-73
2023/01/06 00:45:43;;;;;;;;;4.00;1.00;;;;;13.97;100.00;101933.13;5034714;28;54049;-73
2023/01/06 00:48:09;;;;;;;;;7.67;6.33;;;;;13.98;100.00;101928.69;5038073;28;60592;-73
2023/01/06 00:50:34;;;;;;;;;3.33;2.00;;;;;13.96;100.00;101920.72;5036391;28;45545;-72
2023/01/06 00:53:00;;;;;;;;;0.00;0.00;;;;;13.95;100.00;101926.00;5038010;28;56294;-73
2023/01/06 00:55:25;;;;;;;;;4.33;3.00;;;;;13.96;100.00;101934.00;5037728;28;45528;-74
2023/01/06 00:57:51;;;;;;;;;1.00;0.00;;;;;13.96;100.00;101935.75;5038087;28;49023;-73
2023/01/06 01:00:17;;;;;;;;;0.67;0.67;;;;;13.94;100.00;101938.38;5037049;28;53629;-74
2023/01/06 01:02:42;;;;;;;;;0.00;0.00;;;;;13.92;100.00;101932.16;5038420;28;45352;-72
2023/01/06 01:05:08;;;;;;;;;0.00;0.00;;;;;13.91;100.00;101930.38;5034190;28;45379;-74
2023/01/06 01:07:33;;;;;;;;;0.00;0.00;;;;;13.92;100.00;101934.81;5037417;28;51334;-73
2023/01/06 01:09:59;;;;;;;;;0.00;0.00;;;;;13.91;100.00;101930.38;5037477;28;55054;-74
2023/01/06 01:12:24;;;;;;;;;0.00;0.00;;;;;13.91;100.00;101932.16;5037043;28;45644;-73
2023/01/06 01:14:51;;;;;;;;;0.00;0.00;;;;;13.91;100.00;101935.69;5037356;28;52463;-74
2023/01/06 01:17:20;;;;;;;;;1.00;0.00;;;;;13.91;100.00;101933.03;5019914;28;46540;-72
2023/01/06 01:19:46;;;;;;;;;0.00;0.00;;;;;13.89;100.00;101925.03;5037515;28;45535;-74
2023/01/06 01:22:11;;;;;;;;;0.00;0.00;;;;;13.89;100.00;101930.34;5037806;28;45596;-74
2023/01/06 01:24:37;;;;;;;;;0.00;0.00;;;;;13.87;100.00;101924.13;5037349;28;45120;-73
2023/01/06 01:27:03;;;;;;;;;0.00;0.00;;;;;13.87;100.00;101920.56;5037308;28;45877;-73
2023/01/06 01:29:28;;;;;;;;;0.67;0.00;;;;;13.88;100.00;101917.03;5037284;28;45455;-72
2023/01/06 01:31:54;;;;;;;;;0.00;0.00;;;;;13.88;100.00;101907.31;5037459;28;45302;-73
2023/01/06 01:34:19;;;;;;;;;0.00;0.00;;;;;13.85;100.00;101898.44;5037907;28;45318;-73
2023/01/06 01:36:46;;;;;;;;;0.00;0.00;;;;;13.88;100.00;101917.03;5036718;28;46760;-74
2023/01/06 01:39:13;;;;;;;;;0.00;0.00;;;;;13.88;100.00;101915.28;5037019;28;45352;-73
2023/01/06 01:41:39;;;;;;;;;0.00;0.00;;;;;13.87;100.00;101907.31;5020125;28;45439;-73
2023/01/06 01:44:41;;;;;;;;;0.00;0.00;;;;;13.88;100.00;101898.47;5019735;28;45516;-72
2023/01/06 01:47:08;;;;;;;;;1.00;0.00;;;;;13.83;100.00;101898.38;5036456;28;45930;-72
2023/01/06 01:49:36;;;;;;;;;0.00;0.00;;;;;13.84;100.00;101904.59;5037036;28;46828;-73
2023/01/06 01:52:01;;;;;;;;;0.00;0.00;;;;;13.82;100.00;101898.38;5019656;28;45255;-74
2023/01/06 01:54:29;;;;;;;;;0.00;0.00;;;;;13.81;100.00;101899.25;5037230;28;45197;-74
2023/01/06 01:57:05;;;;;;;;;1.00;0.00;;;;;13.82;100.00;101903.69;5019053;28;46776;-74
2023/01/06 01:59:31;;;;;;;;;0.00;0.00;;;;;13.79;100.00;101898.31;5020532;28;46686;-74
2023/01/06 02:01:57;;;;;;;;;0.00;0.00;;;;;13.81;100.00;101900.13;5052047;28;45358;-74
2023/01/06 02:04:24;;;;;;;;;1.33;0.00;;;;;13.80;100.00;101884.19;5052329;28;45383;-74
2023/01/06 02:06:50;;;;;;;;;0.00;0.00;;;;;13.79;100.00;101880.63;5034465;28;45715;-75
2023/01/06 02:09:31;;;;;;;;;0.00;0.00;;;;;13.82;100.00;101890.41;5035567;28;61119;-74
2023/01/06 02:11:57;;;;;;;;;0.00;0.00;;;;;13.79;100.00;101877.09;5019397;28;45348;-74
2023/01/06 02:14:25;;;;;;;;;0.00;0.00;;;;;13.81;100.00;101872.72;5019207;28;45381;-74
2023/01/06 02:16:50;;;;;;;;;0.00;0.00;;;;;13.83;100.00;101877.16;5036409;28;45909;-72
2023/01/06 02:20:03;;;;;;;;;0.00;0.00;;;;;13.83;100.00;101885.13;5034684;28;45516;-74
2023/01/06 02:23:02;;;;;;;;;0.00;0.00;;;;;13.83;100.00;101893.09;5029774;28;45377;-74
2023/01/06 02:25:41;;;;;;;;;0.00;0.00;;;;;13.82;100.00;101880.69;5035833;28;45450;-72
2023/01/06 02:28:25;;;;;;;;;1.00;0.00;;;;;13.85;100.00;101896.66;5036782;28;46612;-74
2023/01/06 02:31:15;;;;;;;;;0.00;0.00;;;;;13.86;100.00;101889.59;5018564;28;46231;-72
2023/01/06 02:33:48;;;;;;;;;0.00;0.00;;;;;13.87;100.00;101891.38;5035687;28;45452;-73
2023/01/06 02:36:37;;;;;;;;;0.00;0.00;;;;;13.88;100.00;101883.41;5018603;28;45410;-73
2023/01/06 02:39:08;;;;;;;;;1.00;0.00;;;;;13.89;100.00;101884.31;5036599;28;45484;-72
2023/01/06 02:41:42;;;;;;;;;1.00;0.00;;;;;13.88;100.00;101885.19;5036069;28;45372;-73
2023/01/06 02:44:12;;;;;;;;;0.00;0.00;;;;;13.86;100.00;101886.94;5019274;28;45510;-73
2023/01/06 02:46:57;;;;;;;;;0.00;0.00;;;;;13.84;100.00;101880.69;5036614;28;45463;-74
2023/01/06 02:49:30;;;;;;;;;0.00;0.00;;;;;13.81;100.00;101872.72;5035813;28;45239;-75
2023/01/06 02:52:07;;;;;;;;;0.00;0.00;;;;;13.77;100.00;101861.13;5012533;28;45458;-72
2023/01/06 02:54:38;;;;;;;;;0.00;0.00;;;;;13.79;100.00;101861.16;5018907;28;45274;-72
2023/01/06 02:57:11;;;;;;;;;0.00;0.00;;;;;13.79;100.00;101870.00;5032626;28;45238;-73
2023/01/06 02:59:44;;;;;;;;;1.00;0.00;;;;;13.81;100.00;101859.44;5036096;28;46516;-73
2023/01/06 03:02:10;;;;;;;;;0.00;0.00;;;;;13.84;100.00;101864.78;5016910;28;45230;-72
2023/01/06 03:04:39;;;;;;;;;0.00;0.00;;;;;13.85;100.00;101859.50;5033935;28;45203;-74
2023/01/06 03:07:06;;;;;;;;;0.00;0.00;;;;;13.85;100.00;101845.34;5018577;28;45553;-73
2023/01/06 03:09:34;;;;;;;;;0.33;0.00;;;;;13.88;100.00;101856.88;5036603;28;45674;-73
2023/01/06 03:12:06;;;;;;;;;0.33;0.00;;;;;13.89;100.00;101852.44;5017940;28;45298;-72
2023/01/06 03:14:36;;;;;;;;;0.00;0.00;;;;;13.88;100.00;101848.91;5018265;28;45439;-73
2023/01/06 03:17:02;;;;;;;;;0.00;0.00;;;;;13.88;100.00;101848.91;5033087;28;45376;-73
2023/01/06 03:19:28;;;;;;;;;0.00;0.00;;;;;13.92;100.00;101851.63;5036224;28;46550;-73
2023/01/06 03:21:53;;;;;;;;;0.67;0.00;;;;;13.91;100.00;101857.81;5035748;28;45479;-72
2023/01/06 03:24:19;;;;;;;;;0.00;0.00;;;;;13.93;100.00;101858.72;5035953;28;45361;-74
2023/01/06 03:26:45;;;;;;;;;0.00;0.00;;;;;13.89;100.00;101856.00;5035221;28;50635;-73
2023/01/06 03:29:13;;;;;;;;;0.00;0.00;;;;;13.86;100.00;101849.78;5026192;28;59460;-73
2023/01/06 03:31:53;;;;;;;;;0.00;0.00;;;;;13.85;100.00;101848.00;5017650;28;46245;-74
2023/01/06 03:34:24;;;;;;;;;0.00;0.00;;;;;13.84;100.00;101856.81;5036096;28;45384;-73
2023/01/06 03:37:08;;;;;;;;;0.00;0.00;;;;;13.83;100.00;101855.03;5038278;28;45228;-73
2023/01/06 03:39:52;;;;;;;;;0.00;0.00;;;;;13.79;100.00;101846.13;5039362;28;46235;-73
2023/01/06 03:45:38;;;;;;;;;0.33;0.00;;;;;13.75;100.00;101835.47;5038828;28;45452;-75
2023/01/06 03:48:06;;;;;;;;;0.00;0.00;;;;;13.75;100.00;101835.47;5021490;28;45388;-73
2023/01/06 03:50:41;;;;;;;;;0.00;0.00;;;;;13.74;100.00;101828.34;5039092;28;45718;-72
2023/01/06 03:53:36;;;;;;;;;0.00;0.00;;;;;13.77;100.00;101821.31;5054915;28;45429;-72
2023/01/06 03:56:16;;;;;;;;;1.00;0.00;;;;;13.77;100.00;101823.09;5041121;28;45502;-73
2023/01/06 03:58:43;;;;;;;;;1.00;0.00;;;;;13.74;100.00;101831.00;5021545;28;45438;-75
2023/01/06 04:01:09;;;;;;;;;0.00;0.00;;;;;13.71;100.00;101823.00;5021147;28;48402;-73
2023/01/06 04:03:34;;;;;;;;;0.00;0.00;;;;;13.66;100.00;101817.63;5047187;28;45407;-72
2023/01/06 04:06:00;;;;;;;;;0.33;0.00;;;;;13.70;100.00;101815.91;5035564;28;45450;-73
2023/01/06 04:08:25;;;;;;;;;0.00;0.00;;;;;13.69;100.00;101812.38;5038263;28;45280;-72
2023/01/06 04:10:51;;;;;;;;;0.00;0.00;;;;;13.70;100.00;101813.28;5019350;28;59062;-73
2023/01/06 04:13:16;;;;;;;;;0.00;0.00;;;;;13.67;100.00;101815.88;5038238;28;56941;-74
2023/01/06 04:15:41;;;;;;;;;0.00;0.00;;;;;13.66;100.00;101819.41;5036440;28;57011;-72
2023/01/06 04:18:07;;;;;;;;;0.00;0.00;;;;;13.63;100.00;101810.53;5037898;28;52020;-74
2023/01/06 04:20:32;;;;;;;;;0.00;0.00;;;;;13.59;100.00;101813.13;5038462;28;46377;-74
2023/01/06 04:22:58;;;;;;;;;0.00;0.00;;;;;13.59;100.00;101819.31;5038918;28;45170;-73
2023/01/06 04:25:23;;;;;;;;;0.00;0.00;;;;;13.61;100.00;101822.88;5037244;28;56371;-75
2023/01/06 04:27:49;;;;;;;;;0.00;0.00;;;;;13.60;100.00;101821.09;5037988;28;45448;-75
2023/01/06 04:30:15;;;;;;;;;0.00;0.00;;;;;13.63;100.00;101822.88;5026390;28;47378;-73
2023/01/06 04:32:40;;;;;;;;;0.00;0.00;;;;;13.63;100.00;101812.25;5038397;28;45352;-73
2023/01/06 04:35:06;;;;;;;;;1.33;0.00;;;;;13.68;100.00;101815.00;5038999;28;45304;-72
2023/01/06 04:37:31;;;;;;;;;1.00;0.00;;;;;13.67;100.00;101811.44;5020474;28;45679;-73
2023/01/06 04:39:56;;;;;;;;;1.00;0.00;;;;;13.69;100.00;101814.13;5037946;28;60643;-74
2023/01/06 04:42:22;;;;;;;;;0.00;0.00;;;;;13.71;100.00;101813.28;5037320;28;61628;-74
2023/01/06 04:44:47;;;;;;;;;0.00;0.00;;;;;13.72;100.00;101816.81;5021129;28;45353;-75
2023/01/06 04:47:12;;;;;;;;;0.00;0.00;;;;;13.75;100.00;101808.91;5036285;28;53465;-73
2023/01/06 04:49:38;;;;;;;;;0.00;0.00;;;;;13.75;100.00;101815.13;5038227;28;61128;-73
2023/01/06 04:52:04;;;;;;;;;0.00;0.00;;;;;13.77;100.00;101807.16;5037940;28;58853;-73
2023/01/06 04:54:29;;;;;;;;;0.00;0.00;;;;;13.76;100.00;101790.34;5020165;28;45617;-73
2023/01/06 04:56:55;;;;;;;;;0.00;0.00;;;;;13.75;100.00;101787.69;5020068;28;45499;-73
2023/01/06 04:59:20;;;;;;;;;0.00;0.00;;;;;13.76;100.00;101790.34;5037710;28;46364;-72
2023/01/06 05:01:45;;;;;;;;;0.00;0.00;;;;;13.78;100.00;101795.66;5038024;28;45411;-72
2023/01/06 05:04:11;;;;;;;;;0.00;0.00;;;;;13.76;100.00;101795.66;5019388;28;54017;-73
2023/01/06 05:06:38;;;;;;;;;0.00;0.00;;;;;13.80;100.00;101794.84;5019774;28;45419;-73
2023/01/06 05:09:04;;;;;;;;;0.00;0.00;;;;;13.78;100.00;101793.00;5030189;28;45531;-73
2023/01/06 05:11:29;;;;;;;;;0.00;0.00;;;;;13.80;100.00;101801.91;5020006;28;45436;-74
2023/01/06 05:13:54;;;;;;;;;0.00;0.00;;;;;13.80;100.00;101789.53;5038106;28;45246;-73
2023/01/06 05:16:27;;;;;;;;;0.00;0.00;;;;;13.81;100.00;101798.38;5019264;28;45352;-73
2023/01/06 05:18:53;;;;;;;;;0.00;0.00;;;;;13.77;100.00;101797.44;5037423;28;46945;-74
2023/01/06 05:21:19;;;;;;;;;0.00;0.00;;;;;13.79;100.00;101803.66;5020295;28;45274;-73
2023/01/06 05:23:44;;;;;;;;;1.00;0.00;;;;;13.75;100.00;101800.94;5038007;28;45202;-73
2023/01/06 05:26:16;;;;;;;;;1.00;0.00;;;;;13.74;100.00;101809.75;5036671;28;51909;-73
2023/01/06 05:28:41;;;;;;;;;0.00;0.00;;;;;13.71;100.00;101807.09;5002764;28;46772;-72
2023/01/06 05:31:08;;;;;;;;;0.00;0.00;;;;;13.72;100.00;101806.22;5020325;28;45456;-74
2023/01/06 05:33:34;;;;;;;;;0.00;0.00;;;;;13.69;100.00;101803.50;5036334;28;45312;-73
2023/01/06 05:36:02;;;;;;;;;0.00;0.00;;;;;13.68;100.00;101817.66;5033528;28;45237;-73
2023/01/06 05:38:27;;;;;;;;;0.00;0.00;;;;;13.69;100.00;101820.34;5043800;28;46902;-73
2023/01/06 05:40:53;;;;;;;;;0.00;0.00;;;;;13.67;100.00;101811.44;5042493;28;60016;-72
2023/01/06 05:43:22;;;;;;;;;0.00;0.00;;;;;13.71;100.00;101823.00;5037904;28;45443;-72
2023/01/06 05:45:48;;;;;;;;;0.00;0.00;;;;;13.71;100.00;101830.97;5037612;28;45893;-72
2023/01/06 05:48:13;;;;;;;;;1.67;0.00;;;;;13.74;100.00;101837.22;5017913;28;47039;-73
2023/01/06 05:50:38;;;;;;;;;0.00;0.00;;;;;13.72;100.00;101822.13;5036535;28;45396;-73
2023/01/06 05:53:04;;;;;;;;;0.00;0.00;;;;;13.73;100.00;101822.16;5034012;28;45356;-73
2023/01/06 05:55:29;;;;;;;;;1.00;0.00;;;;;13.75;100.00;101820.44;5035712;28;54414;-74
2023/01/06 05:57:54;;;;;;;;;0.00;0.00;;;;;13.72;100.00;101816.81;5035881;28;56527;-73
2023/01/06 06:00:20;;;;;;;;;0.00;0.00;;;;;13.77;100.00;101815.13;5035669;28;60382;-73
2023/01/06 06:02:45;;;;;;;;;0.00;0.00;;;;;13.76;100.00;101816.00;5039031;28;45835;-73
2023/01/06 06:05:10;;;;;;;;;0.00;0.00;;;;;13.78;100.00;101803.63;5036395;28;45428;-73
2023/01/06 06:07:36;;;;;;;;;0.00;0.00;;;;;13.78;100.00;101808.94;5036538;28;57265;-72
2023/01/06 06:10:02;;;;;;;;;0.00;0.00;;;;;13.79;100.00;101826.66;5036303;28;45356;-74
2023/01/06 06:12:28;;;;;;;;;0.00;0.00;;;;;13.78;100.00;101819.56;5036734;28;45385;-73
2023/01/06 06:14:53;;;;;;;;;0.00;0.00;;;;;13.79;100.00;101808.94;5036628;28;45345;-74
2023/01/06 06:17:18;;;;;;;;;2.33;0.00;;;;;13.79;100.00;101813.38;5036072;28;46184;-72
2023/01/06 06:19:44;;;;;;;;;0.00;0.00;;;;;13.79;100.00;101818.69;5036462;28;45406;-72
2023/01/06 06:22:09;;;;;;;;;0.00;0.00;;;;;13.81;100.00;101819.63;5036533;28;45660;-73
2023/01/06 06:24:35;;;;;;;;;1.00;0.00;;;;;13.79;100.00;101819.56;5036600;28;45424;-73
2023/01/06 06:27:00;;;;;;;;;1.00;0.00;;;;;13.81;100.00;101824.94;5033910;28;53505;-72
2023/01/06 06:29:25;;;;;;;;;1.00;0.00;;;;;13.82;100.00;101827.59;5041541;28;57849;-73
2023/01/06 06:31:51;;;;;;;;;0.00;0.00;;;;;13.81;100.00;101824.94;5032268;28;50433;-72
2023/01/06 06:34:16;;;;;;;;;0.00;0.00;;;;;13.84;100.00;101825.84;5015166;28;53575;-72
2023/01/06 06:36:41;;;;;;;;;0.00;0.00;;;;;13.85;100.00;101824.09;5034939;28;45439;-74
2023/01/06 06:39:07;;;;;;;;;0.00;0.00;;;;;13.87;100.00;101827.66;5034361;28;58072;-73
2023/01/06 06:41:32;;;;;;;;;0.00;0.00;;;;;13.87;100.00;101825.88;5035192;28;48631;-71
2023/01/06 06:43:58;;;;;;;;;0.00;0.00;;;;;13.89;100.00;101826.78;5033248;28;45495;-74
2023/01/06 06:46:23;;;;;;;;;0.00;0.00;;;;;13.87;100.00;101828.53;5031152;28;62688;-75
2023/01/06 06:48:49;;;;;;;;;0.00;0.00;;;;;13.86;100.00;101817.91;5035244;28;45672;-74
2023/01/06 06:51:17;;;;;;;;;1.00;0.00;;;;;13.85;100.00;101827.66;5035009;28;45385;-73
2023/01/06 06:53:43;;;;;;;;;1.00;1.00;;;;;13.83;100.00;101828.47;5035214;28;45763;-74
2023/01/06 06:56:09;;;;;;;;;0.00;0.00;;;;;13.82;100.00;101834.66;5031318;28;46781;-75
2023/01/06 06:58:35;;;;;;;;;1.33;0.00;;;;;13.84;100.00;101833.78;5022971;28;46873;-74
2023/01/06 07:01:09;;;;;;;;;0.00;0.00;;;;;13.83;100.00;101828.47;5014980;28;45528;-73
2023/01/06 07:03:34;;;;;;;;;0.00;0.00;;;;;13.77;100.00;101826.63;5035936;28;45943;-72
2023/01/06 07:06:02;;;;;;;;;0.00;0.00;;;;;13.67;100.00;101831.78;5033993;28;46464;-75
2023/01/06 07:08:27;;;;;;;;;0.00;0.00;;;;;13.55;100.00;101822.78;5016772;28;46268;-72
2023/01/06 07:10:52;;;;;;;;;0.00;0.00;;;;;13.50;100.00;101839.50;5027774;28;46038;-74
2023/01/06 07:13:18;;;;;;;;;0.00;0.00;;;;;13.42;100.00;101849.09;5034776;28;55732;-72
2023/01/06 07:15:43;;;;;;;;;1.00;1.00;;;;;13.34;100.00;101844.56;5032026;28;46386;-74
2023/01/06 07:18:08;;;;;;;;;0.00;0.00;;;;;13.31;100.00;101852.47;5034075;28;55238;-72
2023/01/06 07:20:35;;;;;;;;;0.00;0.00;;;;;13.30;100.00;101855.09;5035018;28;51139;-73
2023/01/06 07:23:00;;;;;;;;;0.00;0.00;;;;;13.27;100.00;101848.00;5035687;28;45427;-73
2023/01/06 07:25:26;;;;;;;;;0.00;0.00;;;;;13.28;100.00;101854.19;5033976;28;59917;-72
2023/01/06 07:27:56;;;;;;;;;0.33;0.33;;;;;13.36;100.00;101856.09;5038459;28;45454;-73
2023/01/06 07:30:22;;;;;;;;;0.00;0.00;;;;;13.41;100.00;101849.97;5016597;28;45432;-75
2023/01/06 07:32:47;;;;;;;;;1.33;0.00;;;;;13.48;100.00;101850.09;5034510;28;45391;-73
2023/01/06 07:35:13;;;;;;;;;1.00;1.00;;;;;13.53;100.00;101847.50;5035337;28;56057;-73
2023/01/06 07:37:38;;;;;;;;;0.00;0.00;;;;;13.59;100.00;101839.66;5033723;28;50925;-74
2023/01/06 07:40:04;;;;;;;;;0.00;0.00;;;;;13.60;100.00;101837.00;5034726;28;54807;-73
2023/01/06 07:42:29;;;;;;;;;0.00;0.00;;;;;13.65;100.00;101847.69;5033001;28;45372;-73
2023/01/06 07:44:55;;;;;;;;;0.00;0.00;;;;;13.67;100.00;101843.28;5034014;28;61200;-72
2023/01/06 07:47:20;;;;;;;;;0.00;0.00;;;;;13.70;100.00;101845.13;5034511;28;57344;-73
2023/01/06 07:49:45;;;;;;;;;0.67;0.67;;;;;13.69;100.00;101844.22;5035678;28;45399;-73
2023/01/06 07:52:11;;;;;;;;;2.00;0.00;;;;;13.71;100.00;101841.59;5035186;28;51185;-73
2023/01/06 07:54:36;;;;;;;;;1.00;0.00;;;;;13.72;100.00;101846.03;5035165;28;45747;-72
2023/01/06 07:57:02;;;;;;;;;0.00;0.00;;;;;13.74;100.00;101855.81;5035136;28;61028;-73
2023/01/06 07:59:27;;;;;;;;;2.00;0.00;;;;;13.78;100.00;101854.06;5017913;28;45534;-76
2023/01/06 08:01:52;;;;;;;;;0.00;0.00;;;;;13.81;100.00;101847.06;5035492;28;49665;-73
2023/01/06 08:04:18;;;;;;;;;0.00;0.00;;;;;13.83;100.00;101847.94;5041998;28;46525;-73
2023/01/06 08:06:43;;;;;;;;;0.33;0.33;;;;;13.82;100.00;101854.13;5035061;28;45475;-75
2023/01/06 08:09:08;;;;;;;;;0.00;0.00;;;;;13.85;100.00;101848.88;5035137;28;45293;-73
2023/01/06 08:11:34;;;;;;;;;0.00;0.00;;;;;13.87;100.00;101856.84;5034120;28;50331;-73
2023/01/06 08:13:59;;;;;;;;;0.67;0.67;;;;;13.89;100.00;101860.41;5035001;28;60088;-76
2023/01/06 08:16:24;;;;;;;;;1.00;1.00;;;;;13.91;100.00;101848.06;5030369;28;47009;-74
2023/01/06 08:18:50;;;;;;;;;0.00;0.00;;;;;13.97;100.00;101860.53;5034826;28;52503;-73
2023/01/06 08:21:15;;;;;;;;;0.00;0.00;;;;;14.00;100.00;101853.47;5036762;28;45313;-75
2023/01/06 08:23:40;;;;;;;;;0.00;0.00;;;;;14.03;100.00;101857.97;5037001;28;47449;-73
2023/01/06 08:26:12;;;;;;;;;0.00;0.00;;;;;14.04;100.00;101846.47;5037533;28;58741;-73
2023/01/06 08:28:38;;;;;;;;;1.00;1.00;;;;;14.08;100.00;101861.56;5021018;28;45521;-74
2023/01/06 08:31:03;;;;;;;;;1.00;1.00;;;;;14.06;100.00;101869.53;5039876;28;45269;-76
2023/01/06 08:33:29;;;;;;;;;0.00;0.00;;;;;14.04;100.00;101865.06;5038765;28;46545;-74
2023/01/06 08:35:58;;;;;;;;;1.67;1.00;;;;;14.07;100.00;101866.00;5038320;28;45399;-73
2023/01/06 08:38:24;;;;;;;;;1.00;0.00;;;;;14.04;100.00;101862.41;5039114;28;45194;-75
2023/01/06 08:40:51;;;;;;;;;1.00;1.00;;;;;14.06;100.00;101868.59;5038595;28;45483;-74
2023/01/06 08:43:17;;;;;;;;;0.00;0.00;;;;;14.07;100.00;101868.66;5038267;28;46584;-73
2023/01/06 08:45:42;;;;;;;;;0.67;0.67;;;;;14.05;100.00;101861.50;5037986;28;55942;-73
2023/01/06 08:48:07;;;;;;;;;0.00;0.00;;;;;14.07;100.00;101859.78;5033766;28;52507;-73
2023/01/06 08:50:33;;;;;;;;;1.00;0.00;;;;;14.09;100.00;101861.56;5015633;28;45463;-73
2023/01/06 08:52:58;;;;;;;;;0.00;0.00;;;;;14.11;100.00;101864.25;5038073;28;59996;-73
2023/01/06 08:55:23;;;;;;;;;0.00;0.00;;;;;14.09;100.00;101860.69;5038454;28;45395;-73
2023/01/06 08:57:49;;;;;;;;;0.67;0.67;;;;;14.10;100.00;101867.78;5037715;28;50814;-73
2023/01/06 09:00:15;;;;;;;;;0.00;0.00;;;;;14.09;100.00;101861.56;5019485;28;51728;-73
2023/01/06 09:02:40;;;;;;;;;0.33;0.33;;;;;14.10;100.00;101868.66;5037890;28;46578;-74
2023/01/06 09:05:06;;;;;;;;;0.00;0.00;;;;;14.11;100.00;101874.88;5037844;28;58291;-73
2023/01/06 09:07:31;;;;;;;;;1.67;1.67;;;;;14.13;100.00;101870.50;5158374;22;45498;-73
2023/01/06 09:09:56;;;;;;;;;0.00;0.00;;;;;14.13;100.00;101857.22;5062309;28;45429;-73
2023/01/06 09:12:22;;;;;;;;;1.00;0.00;;;;;14.16;100.00;101866.09;5058199;28;48601;-73
2023/01/06 09:14:47;;;;;;;;;0.00;0.00;;;;;14.20;100.00;101874.09;5036436;28;45290;-73
2023/01/06 09:17:12;;;;;;;;;0.00;0.00;;;;;14.21;100.00;101870.56;5047079;28;51293;-73
2023/01/06 09:19:38;;;;;;;;;0.00;0.00;;;;;14.22;100.00;101864.38;5025490;28;52671;-73
2023/01/06 09:22:03;;;;;;;;;0.00;0.00;;;;;14.26;100.00;101866.22;5039519;28;45682;-73
2023/01/06 09:24:28;;;;;;;;;1.33;0.00;;;;;14.21;100.00;101870.56;5056005;28;58710;-73
2023/01/06 09:26:54;;;;;;;;;0.00;0.00;;;;;14.20;100.00;101877.66;5038496;28;45654;-73
2023/01/06 09:29:20;;;;;;;;;2.00;0.00;;;;;14.24;100.00;101874.19;5057747;28;45241;-73
2023/01/06 09:31:45;;;;;;;;;0.67;0.00;;;;;14.25;100.00;101862.66;5057376;28;47551;-71
2023/01/06 09:34:11;;;;;;;;;0.00;0.00;;;;;14.30;100.00;101883.97;5055140;28;45323;-73
2023/01/06 09:36:36;;;;;;;;;1.00;1.00;;;;;14.33;100.00;101884.94;5055901;28;45257;-74
2023/01/06 09:39:02;;;;;;;;;0.00;0.00;;;;;14.38;100.00;101879.63;5036121;28;47349;-74
2023/01/06 09:41:49;;;;;;;;;1.00;1.00;;;;;14.42;100.00;101885.00;5057504;28;46679;-73
2023/01/06 09:44:43;;;;;;;;;1.33;0.33;;;;;14.43;100.00;101883.25;5053867;28;45525;-73
2023/01/06 09:47:11;;;;;;;;;0.33;0.33;;;;;14.40;100.00;101876.16;5053604;28;45514;-73
2023/01/06 09:50:02;;;;;;;;;1.00;1.00;;;;;14.40;100.00;101877.91;5058850;28;45738;-73
2023/01/06 09:52:39;;;;;;;;;0.67;0.00;;;;;14.42;100.00;101877.03;5054714;28;46084;-73
2023/01/06 09:55:07;;;;;;;;;2.67;1.33;;;;;14.44;100.00;101882.41;5057241;28;45474;-74
2023/01/06 09:57:38;;;;;;;;;1.00;1.00;;;;;14.43;100.00;101869.97;5056461;28;45387;-73
2023/01/06 10:00:26;;;;;;;;;4.67;1.00;;;;;14.48;100.00;101884.22;5056634;28;45569;-73
2023/01/06 10:02:51;;;;;;;;;1.00;0.00;;;;;14.47;100.00;101877.13;5056435;28;45796;-73
2023/01/06 10:05:20;;;;;;;;;1.33;1.00;;;;;14.50;100.00;101874.53;5057202;28;45212;-73
2023/01/06 10:07:51;;;;;;;;;2.00;1.00;;;;;14.50;100.00;101879.84;5056063;28;45654;-73
2023/01/06 10:10:33;;;;;;;;;2.00;1.00;;;;;14.56;100.00;101889.66;5040022;28;45427;-73
2023/01/06 10:13:16;;;;;;;;;1.00;1.00;;;;;14.56;100.00;101892.31;5056496;28;45482;-73
2023/01/06 10:16:00;;;;;;;;;0.00;0.00;;;;;14.58;100.00;101890.53;5056464;28;45374;-73
2023/01/06 10:18:35;;;;;;;;;2.00;1.00;;;;;14.62;100.00;101903.00;5056260;28;45439;-75
2023/01/06 10:21:19;;;;;;;;;0.67;0.67;;;;;14.64;100.00;101901.25;5039820;28;45285;-73
2023/01/06 10:24:03;;;;;;;;;1.00;1.00;;;;;14.65;100.00;101903.94;5056406;28;46597;-75
2023/01/06 10:26:31;;;;;;;;;1.67;1.67;;;;;14.65;100.00;101905.72;5054098;28;45294;-74
2023/01/06 10:29:09;;;;;;;;;2.00;1.00;;;;;14.61;100.00;101885.28;5057227;28;45386;-73
2023/01/06 10:31:36;;;;;;;;;2.00;0.33;;;;;14.64;100.00;101891.50;5057288;28;45354;-73
2023/01/06 10:34:02;;;;;;;;;2.00;1.00;;;;;14.67;100.00;101886.22;5037888;28;53552;-73
2023/01/06 10:36:36;;;;;;;;;1.33;1.33;;;;;14.68;100.00;101888.00;5039532;28;45285;-75
2023/01/06 10:39:05;;;;;;;;;1.00;1.00;;;;;14.68;100.00;101884.47;5038397;28;45429;-73
2023/01/06 10:44:47;;;;;;;;;1.00;1.00;;;;;14.73;100.00;101892.50;5024424;28;45904;-73
2023/01/06 10:47:23;;;;;;;;;1.00;1.00;;;;;14.73;100.00;101877.44;5055318;28;61481;-73
2023/01/06 10:49:49;;;;;;;;;2.00;1.00;;;;;14.78;100.00;101882.81;5038708;28;45416;-73
2023/01/06 10:52:14;;;;;;;;;2.00;1.00;;;;;14.80;100.00;101879.25;5049508;28;45419;-74
2023/01/06 10:54:41;;;;;;;;;2.00;2.00;;;;;14.85;100.00;101880.22;5056390;28;46617;-73
2023/01/06 10:57:13;;;;;;;;;2.33;1.00;;;;;14.94;100.00;101874.09;5056893;28;45271;-73
2023/01/06 11:00:07;;;;;;;;;1.67;1.67;;;;;15.02;100.00;101874.16;5038377;28;45399;-74
2023/01/06 11:02:33;;;;;;;;;1.00;1.00;;;;;15.07;100.00;101865.34;5048729;28;45358;-73
2023/01/06 11:05:01;;;;;;;;;1.00;1.00;;;;;15.10;100.00;101865.38;5038295;28;51942;-73
2023/01/06 11:07:28;;;;;;;;;1.00;1.00;;;;;15.11;100.00;101853.84;5054361;28;45307;-75
2023/01/06 11:09:54;;;;;;;;;1.33;0.33;;;;;15.13;100.00;101860.09;5038157;28;45335;-74
2023/01/06 11:12:25;;;;;;;;;1.00;1.00;;;;;15.19;100.00;101856.59;5052982;28;45889;-76
2023/01/06 11:14:54;;;;;;;;;1.33;1.33;;;;;15.24;100.00;101859.31;5023160;28;46813;-75
2023/01/06 11:17:20;;;;;;;;;1.00;1.00;;;;;15.28;100.00;101858.44;5056196;28;45176;-76
2023/01/06 11:20:08;;;;;;;;;1.33;1.33;;;;;15.28;100.00;101863.75;5040877;28;45466;-75
2023/01/06 11:22:37;;;;;;;;;1.67;1.67;;;;;15.29;100.00;101846.94;5056282;28;46856;-76
2023/01/06 11:25:20;;;;;;;;;1.00;1.00;;;;;15.28;100.00;101850.44;5056529;28;46832;-77
2023/01/06 11:27:47;;;;;;;;;0.00;0.00;;;;;15.28;100.00;101853.09;5054945;28;45445;-76
2023/01/06 11:30:26;;;;;;;;;3.33;1.00;;;;;15.30;100.00;101849.59;5040697;28;45569;-76